sensor_id;sensor_type;location;lat;lon;timestamp;pressure;altitude;pressure_sealevel;temperature;humidity
20620;BME280;10469;42.720;23.252;2024-02-23T00:01:30;94658.31;;;7.87;100.00
20620;BME280;10469;42.720;23.252;2024-02-23T00:03:55;94640.13;;;7.96;100.00
20620;BME280;10469;42.720;23.252;2024-02-23T00:06:21;94630.53;;;8.07;100.00
20620;BME280;10469;42.720;23.252;2024-02-23T00:08:53;94635.88;;;8.37;100.00
20620;BME280;10469;42.720;23.252;2024-02-23T00:11:20;94635.59;;;8.26;100.00
20620;BME280;10469;42.720;23.252;2024-02-23T00:13:46;94616.97;;;8.08;100.00
20620;BME280;10469;42.720;23.252;2024-02-23T00:16:11;94630.06;;;7.79;100.00
20620;BME280;10469;42.720;23.252;2024-02-23T00:18:37;94619.84;;;7.76;100.00
20620;BME280;10469;42.720;23.252;2024-02-23T00:21:03;94609.16;;;7.76;100.00
20620;BME280;10469;42.720;23.252;2024-02-23T00:23:29;94633.47;;;7.68;100.00
20620;BME280;10469;42.720;23.252;2024-02-23T00:25:55;94622.50;;;7.95;100.00
20620;BME280;10469;42.720;23.252;2024-02-23T00:28:21;94620.56;;;7.84;100.00
20620;BME280;10469;42.720;23.252;2024-02-23T00:30:46;94617.34;;;7.82;100.00
20620;BME280;10469;42.720;23.252;2024-02-23T00:33:13;94613.19;;;7.67;100.00
20620;BME280;10469;42.720;23.252;2024-02-23T00:35:39;94605.78;;;7.99;100.00
20620;BME280;10469;42.720;23.252;2024-02-23T00:38:04;94629.81;;;7.99;100.00
20620;BME280;10469;42.720;23.252;2024-02-23T00:40:30;94604.88;;;8.05;100.00
20620;BME280;10469;42.720;23.252;2024-02-23T00:42:55;94604.59;;;7.47;100.00
20620;BME280;10469;42.720;23.252;2024-02-23T00:45:21;94593.72;;;7.48;100.00
20620;BME280;10469;42.720;23.252;2024-02-23T00:47:47;94617.34;;;7.45;100.00
20620;BME280;10469;42.720;23.252;2024-02-23T00:50:14;94598.09;;;7.43;100.00
20620;BME280;10469;42.720;23.252;2024-02-23T00:52:39;94611.44;;;7.24;100.00
20620;BME280;10469;42.720;23.252;2024-02-23T00:55:06;94605.66;;;7.27;100.00
20620;BME280;10469;42.720;23.252;2024-02-23T00:57:34;94602.41;;;7.25;100.00
20620;BME280;10469;42.720;23.252;2024-02-23T01:00:01;94603.59;;;7.48;100.00
20620;BME280;10469;42.720;23.252;2024-02-23T01:02:28;94587.44;;;7.43;100.00
20620;BME280;10469;42.720;23.252;2024-02-23T01:04:54;94613.47;;;7.59;100.00
20620;BME280;10469;42.720;23.252;2024-02-23T01:07:22;94604.28;;;7.55;100.00
20620;BME280;10469;42.720;23.252;2024-02-23T01:09:48;94606.38;;;7.53;100.00
20620;BME280;10469;42.720;23.252;2024-02-23T01:12:14;94584.09;;;7.47;100.00
20620;BME280;10469;42.720;23.252;2024-02-23T01:14:39;94584.81;;;7.54;100.00
20620;BME280;10469;42.720;23.252;2024-02-23T01:17:05;94564.56;;;7.65;100.00
20620;BME280;10469;42.720;23.252;2024-02-23T01:19:30;94568.44;;;7.51;100.00
20620;BME280;10469;42.720;23.252;2024-02-23T01:21:56;94594.22;;;7.57;100.00
20620;BME280;10469;42.720;23.252;2024-02-23T01:24:26;94583.78;;;7.56;100.00
20620;BME280;10469;42.720;23.252;2024-02-23T01:26:53;94579.44;;;7.43;100.00
20620;BME280;10469;42.720;23.252;2024-02-23T01:29:21;94560.75;;;7.43;100.00
20620;BME280;10469;42.720;23.252;2024-02-23T01:31:48;94576.91;;;7.29;100.00
20620;BME280;10469;42.720;23.252;2024-02-23T01:34:14;94558.84;;;7.32;100.00
20620;BME280;10469;42.720;23.252;2024-02-23T01:36:40;94556.59;;;7.28;100.00
20620;BME280;10469;42.720;23.252;2024-02-23T01:39:05;94551.16;;;7.05;100.00
20620;BME280;10469;42.720;23.252;2024-02-23T01:41:32;94553.66;;;7.18;100.00
20620;BME280;10469;42.720;23.252;2024-02-23T01:43:57;94563.41;;;7.24;100.00
20620;BME280;10469;42.720;23.252;2024-02-23T01:46:23;94565.13;;;7.19;100.00
20620;BME280;10469;42.720;23.252;2024-02-23T01:48:49;94578.31;;;7.32;100.00
20620;BME280;10469;42.720;23.252;2024-02-23T01:51:15;94565.44;;;7.11;100.00
20620;BME280;10469;42.720;23.252;2024-02-23T01:53:41;94566.63;;;6.96;100.00
20620;BME280;10469;42.720;23.252;2024-02-23T01:56:07;94564.78;;;6.97;100.00
20620;BME280;10469;42.720;23.252;2024-02-23T01:58:34;94560.91;;;6.93;100.00
20620;BME280;10469;42.720;23.252;2024-02-23T02:01:00;94555.16;;;6.96;100.00
20620;BME280;10469;42.720;23.252;2024-02-23T02:03:26;94572.34;;;7.00;100.00
20620;BME280;10469;42.720;23.252;2024-02-23T02:05:53;94561.50;;;6.95;100.00
20620;BME280;10469;42.720;23.252;2024-02-23T02:08:19;94534.69;;;6.90;100.00
20620;BME280;10469;42.720;23.252;2024-02-23T02:10:45;94572.03;;;7.08;100.00
20620;BME280;10469;42.720;23.252;2024-02-23T02:13:12;94538.69;;;6.99;100.00
20620;BME280;10469;42.720;23.252;2024-02-23T02:15:38;94558.78;;;7.01;100.00
20620;BME280;10469;42.720;23.252;2024-02-23T02:18:04;94544.78;;;7.06;100.00
20620;BME280;10469;42.720;23.252;2024-02-23T02:20:32;94553.53;;;7.13;100.00
20620;BME280;10469;42.720;23.252;2024-02-23T02:22:59;94548.06;;;7.08;100.00
20620;BME280;10469;42.720;23.252;2024-02-23T02:25:24;94545.16;;;7.10;100.00
20620;BME280;10469;42.720;23.252;2024-02-23T02:27:50;94536.91;;;7.11;100.00
20620;BME280;10469;42.720;23.252;2024-02-23T02:30:16;94562.09;;;6.97;100.00
20620;BME280;10469;42.720;23.252;2024-02-23T02:32:41;94522.28;;;6.84;100.00
20620;BME280;10469;42.720;23.252;2024-02-23T02:35:07;94543.22;;;6.98;100.00
20620;BME280;10469;42.720;23.252;2024-02-23T02:37:33;94560.25;;;6.97;100.00
20620;BME280;10469;42.720;23.252;2024-02-23T02:39:58;94543.31;;;6.92;100.00
20620;BME280;10469;42.720;23.252;2024-02-23T02:42:24;94555.16;;;6.96;100.00
20620;BME280;10469;42.720;23.252;2024-02-23T02:44:50;94550.97;;;6.82;100.00
20620;BME280;10469;42.720;23.252;2024-02-23T02:47:15;94552.84;;;6.81;100.00
20620;BME280;10469;42.720;23.252;2024-02-23T02:49:41;94545.13;;;6.73;100.00
20620;BME280;10469;42.720;23.252;2024-02-23T02:52:06;94562.16;;;6.72;100.00
20620;BME280;10469;42.720;23.252;2024-02-23T02:54:33;94545.34;;;6.71;100.00
20620;BME280;10469;42.720;23.252;2024-02-23T02:56:59;94554.84;;;6.86;100.00
20620;BME280;10469;42.720;23.252;2024-02-23T02:59:25;94558.31;;;6.86;100.00
20620;BME280;10469;42.720;23.252;2024-02-23T03:01:50;94562.53;;;6.94;100.00
20620;BME280;10469;42.720;23.252;2024-02-23T03:04:16;94544.25;;;6.79;100.00
20620;BME280;10469;42.720;23.252;2024-02-23T03:06:41;94556.91;;;6.84;100.00
20620;BME280;10469;42.720;23.252;2024-02-23T03:09:07;94560.31;;;6.91;100.00
20620;BME280;10469;42.720;23.252;2024-02-23T03:11:33;94547.59;;;6.74;100.00
20620;BME280;10469;42.720;23.252;2024-02-23T03:13:59;94576.63;;;6.83;100.00
20620;BME280;10469;42.720;23.252;2024-02-23T03:16:24;94569.50;;;6.95;100.00
20620;BME280;10469;42.720;23.252;2024-02-23T03:18:54;94555.06;;;7.02;100.00
20620;BME280;10469;42.720;23.252;2024-02-23T03:21:20;94556.09;;;7.01;100.00
20620;BME280;10469;42.720;23.252;2024-02-23T03:23:45;94561.69;;;7.00;100.00
20620;BME280;10469;42.720;23.252;2024-02-23T03:26:11;94564.78;;;6.97;100.00
20620;BME280;10469;42.720;23.252;2024-02-23T03:28:36;94568.31;;;6.91;100.00
20620;BME280;10469;42.720;23.252;2024-02-23T03:31:02;94540.84;;;6.90;100.00
20620;BME280;10469;42.720;23.252;2024-02-23T03:33:28;94522.03;;;7.03;100.00
20620;BME280;10469;42.720;23.252;2024-02-23T03:35:53;94524.34;;;7.18;100.00
20620;BME280;10469;42.720;23.252;2024-02-23T03:38:20;94540.56;;;7.17;100.00
20620;BME280;10469;42.720;23.252;2024-02-23T03:40:46;94547.06;;;7.21;100.00
20620;BME280;10469;42.720;23.252;2024-02-23T03:43:11;94563.16;;;7.14;100.00
20620;BME280;10469;42.720;23.252;2024-02-23T03:45:37;94559.66;;;7.14;100.00
20620;BME280;10469;42.720;23.252;2024-02-23T03:48:03;94540.63;;;7.10;100.00
20620;BME280;10469;42.720;23.252;2024-02-23T03:50:30;94544.09;;;7.11;100.00
20620;BME280;10469;42.720;23.252;2024-02-23T03:52:55;94566.25;;;7.11;100.00
20620;BME280;10469;42.720;23.252;2024-02-23T03:55:21;94543.72;;;7.07;100.00
20620;BME280;10469;42.720;23.252;2024-02-23T03:57:48;94561.91;;;7.17;100.00
20620;BME280;10469;42.720;23.252;2024-02-23T04:00:14;94557.06;;;7.07;100.00
20620;BME280;10469;42.720;23.252;2024-02-23T04:02:40;94558.19;;;7.18;100.00
20620;BME280;10469;42.720;23.252;2024-02-23T04:05:06;94561.09;;;7.46;100.00
20620;BME280;10469;42.720;23.252;2024-02-23T04:07:32;94552.56;;;7.26;100.00
20620;BME280;10469;42.720;23.252;2024-02-23T04:09:58;94561.81;;;7.23;100.00
20620;BME280;10469;42.720;23.252;2024-02-23T04:12:24;94557.94;;;7.19;100.00
20620;BME280;10469;42.720;23.252;2024-02-23T04:14:50;94554.63;;;7.06;100.00
20620;BME280;10469;42.720;23.252;2024-02-23T04:17:15;94543.50;;;7.27;100.00
20620;BME280;10469;42.720;23.252;2024-02-23T04:19:42;94548.75;;;7.52;100.00
20620;BME280;10469;42.720;23.252;2024-02-23T04:22:09;94556.69;;;7.22;100.00
20620;BME280;10469;42.720;23.252;2024-02-23T04:24:39;94557.22;;;7.31;100.00
20620;BME280;10469;42.720;23.252;2024-02-23T04:27:06;94572.63;;;7.10;100.00
20620;BME280;10469;42.720;23.252;2024-02-23T04:29:31;94561.72;;;7.12;100.00
20620;BME280;10469;42.720;23.252;2024-02-23T04:31:58;94560.78;;;6.88;100.00
20620;BME280;10469;42.720;23.252;2024-02-23T04:34:23;94570.91;;;6.97;100.00
20620;BME280;10469;42.720;23.252;2024-02-23T04:36:49;94548.91;;;6.65;100.00
20620;BME280;10469;42.720;23.252;2024-02-23T04:39:14;94566.19;;;6.56;100.00
20620;BME280;10469;42.720;23.252;2024-02-23T04:41:40;94570.78;;;6.49;100.00
20620;BME280;10469;42.720;23.252;2024-02-23T04:44:05;94567.78;;;6.82;100.00
20620;BME280;10469;42.720;23.252;2024-02-23T04:46:31;94576.53;;;6.71;100.00
20620;BME280;10469;42.720;23.252;2024-02-23T04:48:59;94573.16;;;6.57;100.00
20620;BME280;10469;42.720;23.252;2024-02-23T04:51:25;94571.16;;;6.52;100.00
20620;BME280;10469;42.720;23.252;2024-02-23T04:53:51;94582.63;;;6.53;100.00
20620;BME280;10469;42.720;23.252;2024-02-23T04:56:16;94576.22;;;6.36;100.00
20620;BME280;10469;42.720;23.252;2024-02-23T04:58:43;94559.44;;;6.35;100.00
20620;BME280;10469;42.720;23.252;2024-02-23T05:01:09;94572.56;;;6.30;100.00
20620;BME280;10469;42.720;23.252;2024-02-23T05:03:36;94560.72;;;6.26;100.00
20620;BME280;10469;42.720;23.252;2024-02-23T05:06:03;94576.06;;;6.31;100.00
20620;BME280;10469;42.720;23.252;2024-02-23T05:08:28;94582.84;;;6.26;100.00
20620;BME280;10469;42.720;23.252;2024-02-23T05:10:56;94578.38;;;6.20;100.00
20620;BME280;10469;42.720;23.252;2024-02-23T05:13:22;94573.63;;;5.97;100.00
20620;BME280;10469;42.720;23.252;2024-02-23T05:15:47;94594.41;;;6.14;100.00
20620;BME280;10469;42.720;23.252;2024-02-23T05:18:13;94584.75;;;6.19;100.00
20620;BME280;10469;42.720;23.252;2024-02-23T05:20:39;94599.53;;;6.40;100.00
20620;BME280;10469;42.720;23.252;2024-02-23T05:23:04;94609.19;;;6.85;100.00
20620;BME280;10469;42.720;23.252;2024-02-23T05:25:30;94600.84;;;7.18;100.00
20620;BME280;10469;42.720;23.252;2024-02-23T05:27:56;94602.25;;;7.02;100.00
20620;BME280;10469;42.720;23.252;2024-02-23T05:30:21;94582.50;;;7.58;100.00
20620;BME280;10469;42.720;23.252;2024-02-23T05:32:48;94598.75;;;8.17;100.00
20620;BME280;10469;42.720;23.252;2024-02-23T05:35:13;94578.31;;;8.64;100.00
20620;BME280;10469;42.720;23.252;2024-02-23T05:37:41;94592.00;;;8.79;100.00
20620;BME280;10469;42.720;23.252;2024-02-23T05:40:06;94570.31;;;9.80;100.00
20620;BME280;10469;42.720;23.252;2024-02-23T05:42:36;94599.03;;;11.09;100.00
20620;BME280;10469;42.720;23.252;2024-02-23T05:45:02;94605.09;;;11.60;100.00
20620;BME280;10469;42.720;23.252;2024-02-23T05:47:30;94590.41;;;12.39;100.00
20620;BME280;10469;42.720;23.252;2024-02-23T05:49:55;94596.00;;;12.32;100.00
20620;BME280;10469;42.720;23.252;2024-02-23T05:52:21;94593.81;;;13.25;100.00
20620;BME280;10469;42.720;23.252;2024-02-23T05:54:47;94600.84;;;13.26;99.14
20620;BME280;10469;42.720;23.252;2024-02-23T05:57:12;94612.94;;;13.76;97.95
20620;BME280;10469;42.720;23.252;2024-02-23T05:59:38;94619.06;;;14.24;93.36
20620;BME280;10469;42.720;23.252;2024-02-23T06:02:04;94601.00;;;13.15;96.87
20620;BME280;10469;42.720;23.252;2024-02-23T06:04:29;94611.00;;;14.40;93.23
20620;BME280;10469;42.720;23.252;2024-02-23T06:06:55;94604.94;;;13.87;93.32
20620;BME280;10469;42.720;23.252;2024-02-23T06:09:20;94592.94;;;14.40;92.29
20620;BME280;10469;42.720;23.252;2024-02-23T06:11:46;94611.59;;;15.44;89.07
20620;BME280;10469;42.720;23.252;2024-02-23T06:14:12;94614.72;;;16.02;86.12
20620;BME280;10469;42.720;23.252;2024-02-23T06:16:37;94622.34;;;15.85;86.22
20620;BME280;10469;42.720;23.252;2024-02-23T06:19:03;94611.94;;;17.93;81.09
20620;BME280;10469;42.720;23.252;2024-02-23T06:21:28;94607.13;;;16.53;78.91
20620;BME280;10469;42.720;23.252;2024-02-23T06:23:54;94611.41;;;16.15;79.90
20620;BME280;10469;42.720;23.252;2024-02-23T06:26:20;94619.97;;;17.16;76.74
20620;BME280;10469;42.720;23.252;2024-02-23T06:28:46;94608.94;;;16.68;77.83
20620;BME280;10469;42.720;23.252;2024-02-23T06:31:12;94613.44;;;16.88;75.80
20620;BME280;10469;42.720;23.252;2024-02-23T11:14:08;94463.47;;;19.02;61.15
20620;BME280;10469;42.720;23.252;2024-02-23T11:16:39;94451.56;;;17.52;64.71
20620;BME280;10469;42.720;23.252;2024-02-23T11:19:09;94477.47;;;18.25;67.22
20620;BME280;10469;42.720;23.252;2024-02-23T11:21:36;94470.72;;;20.75;62.55
20620;BME280;10469;42.720;23.252;2024-02-23T11:24:04;94474.03;;;22.05;57.60
20620;BME280;10469;42.720;23.252;2024-02-23T11:26:31;94465.13;;;23.39;54.18
20620;BME280;10469;42.720;23.252;2024-02-23T11:29:09;94457.47;;;23.70;50.50
20620;BME280;10469;42.720;23.252;2024-02-23T11:31:35;94451.31;;;24.74;50.26
20620;BME280;10469;42.720;23.252;2024-02-23T11:34:01;94450.09;;;20.38;54.04
20620;BME280;10469;42.720;23.252;2024-02-23T11:38:57;94450.25;;;18.95;62.01
20620;BME280;10469;42.720;23.252;2024-02-23T11:41:23;94456.44;;;19.97;59.39
20620;BME280;10469;42.720;23.252;2024-02-23T11:43:50;94475.59;;;20.28;57.05
20620;BME280;10469;42.720;23.252;2024-02-23T11:46:18;94438.59;;;18.95;59.62
20620;BME280;10469;42.720;23.252;2024-02-23T11:48:44;94438.63;;;19.09;59.91
20620;BME280;10469;42.720;23.252;2024-02-23T11:51:13;94403.69;;;17.23;64.28
20620;BME280;10469;42.720;23.252;2024-02-23T11:53:39;94433.63;;;16.55;68.82
20620;BME280;10469;42.720;23.252;2024-02-23T11:56:05;94352.28;;;16.12;68.76
20620;BME280;10469;42.720;23.252;2024-02-23T11:58:32;94404.53;;;16.42;70.27
20620;BME280;10469;42.720;23.252;2024-02-23T12:00:57;94453.50;;;16.74;70.21
20620;BME280;10469;42.720;23.252;2024-02-23T12:03:26;94421.81;;;16.46;71.06
20620;BME280;10469;42.720;23.252;2024-02-23T12:05:51;94436.59;;;16.88;69.29
20620;BME280;10469;42.720;23.252;2024-02-23T12:08:17;94422.09;;;17.02;69.68
20620;BME280;10469;42.720;23.252;2024-02-23T12:10:43;94420.13;;;17.32;68.24
20620;BME280;10469;42.720;23.252;2024-02-23T12:13:09;94420.91;;;18.65;65.99
20620;BME280;10469;42.720;23.252;2024-02-23T12:15:35;94412.84;;;19.06;63.03
20620;BME280;10469;42.720;23.252;2024-02-23T12:18:03;94404.66;;;19.89;62.17
20620;BME280;10469;42.720;23.252;2024-02-23T12:20:32;94423.31;;;18.01;64.68
20620;BME280;10469;42.720;23.252;2024-02-23T12:22:58;94406.66;;;16.74;67.62
20620;BME280;10469;42.720;23.252;2024-02-23T12:25:25;94405.94;;;16.63;68.44
20620;BME280;10469;42.720;23.252;2024-02-23T12:27:57;94411.00;;;16.75;69.43
20620;BME280;10469;42.720;23.252;2024-02-23T12:30:23;94389.72;;;16.63;68.87
20620;BME280;10469;42.720;23.252;2024-02-23T12:32:49;94375.69;;;16.27;69.62
20620;BME280;10469;42.720;23.252;2024-02-23T12:35:14;94378.13;;;16.28;69.92
20620;BME280;10469;42.720;23.252;2024-02-23T12:37:42;94400.63;;;16.24;69.67
20620;BME280;10469;42.720;23.252;2024-02-23T12:40:09;94415.06;;;16.09;69.92
20620;BME280;10469;42.720;23.252;2024-02-23T12:42:34;94383.09;;;16.74;70.37
20620;BME280;10469;42.720;23.252;2024-02-23T12:45:00;94392.66;;;17.39;67.98
20620;BME280;10469;42.720;23.252;2024-02-23T12:47:26;94394.72;;;17.47;67.83
20620;BME280;10469;42.720;23.252;2024-02-23T12:49:51;94316.41;;;17.64;65.56
20620;BME280;10469;42.720;23.252;2024-02-23T12:52:17;94375.00;;;16.98;65.92
20620;BME280;10469;42.720;23.252;2024-02-23T12:54:42;94382.72;;;17.10;67.29
20620;BME280;10469;42.720;23.252;2024-02-23T12:57:08;94369.75;;;17.07;66.97
20620;BME280;10469;42.720;23.252;2024-02-23T12:59:33;94381.00;;;16.95;67.01
20620;BME280;10469;42.720;23.252;2024-02-23T13:01:59;94358.00;;;16.40;67.88
20620;BME280;10469;42.720;23.252;2024-02-23T13:04:25;94371.50;;;16.40;68.79
20620;BME280;10469;42.720;23.252;2024-02-23T13:06:50;94363.63;;;16.14;69.03
20620;BME280;10469;42.720;23.252;2024-02-23T13:09:15;94344.28;;;16.02;68.58
20620;BME280;10469;42.720;23.252;2024-02-23T13:11:41;94330.50;;;15.98;68.64
20620;BME280;10469;42.720;23.252;2024-02-23T13:14:07;94381.44;;;16.20;69.04
20620;BME280;10469;42.720;23.252;2024-02-23T13:16:34;94348.78;;;16.41;68.87
20620;BME280;10469;42.720;23.252;2024-02-23T13:19:00;94393.94;;;16.45;69.66
20620;BME280;10469;42.720;23.252;2024-02-23T13:21:25;94379.97;;;16.33;69.44
20620;BME280;10469;42.720;23.252;2024-02-23T13:23:51;94378.19;;;15.89;69.54
20620;BME280;10469;42.720;23.252;2024-02-23T13:26:16;94389.66;;;16.05;70.28
20620;BME280;10469;42.720;23.252;2024-02-23T13:28:42;94362.88;;;16.09;70.08
20620;BME280;10469;42.720;23.252;2024-02-23T13:31:09;94375.69;;;15.93;69.82
20620;BME280;10469;42.720;23.252;2024-02-23T13:33:34;94389.91;;;16.09;70.13
20620;BME280;10469;42.720;23.252;2024-02-23T13:36:00;94379.97;;;16.33;70.64
20620;BME280;10469;42.720;23.252;2024-02-23T13:38:25;94397.91;;;16.53;70.14
20620;BME280;10469;42.720;23.252;2024-02-23T13:40:51;94383.94;;;16.70;69.97
20620;BME280;10469;42.720;23.252;2024-02-23T13:43:17;94398.00;;;16.43;69.75
20620;BME280;10469;42.720;23.252;2024-02-23T13:45:50;94380.00;;;16.57;69.69
20620;BME280;10469;42.720;23.252;2024-02-23T13:48:16;94370.63;;;16.78;69.13
20620;BME280;10469;42.720;23.252;2024-02-23T13:50:44;94388.94;;;16.87;68.43
20620;BME280;10469;42.720;23.252;2024-02-23T13:53:11;94371.63;;;16.59;68.77
20620;BME280;10469;42.720;23.252;2024-02-23T13:55:37;94381.78;;;16.43;69.24
20620;BME280;10469;42.720;23.252;2024-02-23T13:58:03;94399.63;;;16.44;68.66
20620;BME280;10469;42.720;23.252;2024-02-23T14:00:28;94390.28;;;16.60;68.59
20620;BME280;10469;42.720;23.252;2024-02-23T14:02:54;94398.16;;;16.86;68.35
20620;BME280;10469;42.720;23.252;2024-02-23T14:05:19;94386.47;;;16.90;67.73
20620;BME280;10469;42.720;23.252;2024-02-23T14:07:47;94398.56;;;16.69;69.00
20620;BME280;10469;42.720;23.252;2024-02-23T14:10:13;94385.34;;;16.67;68.71
20620;BME280;10469;42.720;23.252;2024-02-23T14:12:39;94388.06;;;16.62;68.85
20620;BME280;10469;42.720;23.252;2024-02-23T14:15:05;94386.44;;;16.37;68.71
20620;BME280;10469;42.720;23.252;2024-02-23T14:17:30;94379.63;;;16.11;69.66
20620;BME280;10469;42.720;23.252;2024-02-23T14:19:56;94389.16;;;16.37;69.54
20620;BME280;10469;42.720;23.252;2024-02-23T14:22:21;94390.03;;;16.56;69.16
20620;BME280;10469;42.720;23.252;2024-02-23T14:24:47;94369.84;;;16.44;67.79
20620;BME280;10469;42.720;23.252;2024-02-23T14:27:13;94402.31;;;16.44;68.34
20620;BME280;10469;42.720;23.252;2024-02-23T14:29:38;94370.38;;;16.17;68.27
20620;BME280;10469;42.720;23.252;2024-02-23T14:32:04;94380.78;;;16.34;68.38
20620;BME280;10469;42.720;23.252;2024-02-23T14:34:30;94384.66;;;16.22;68.30
20620;BME280;10469;42.720;23.252;2024-02-23T14:36:58;94364.59;;;16.28;68.47
20620;BME280;10469;42.720;23.252;2024-02-23T14:39:24;94382.94;;;16.31;67.86
20620;BME280;10469;42.720;23.252;2024-02-23T14:41:49;94390.13;;;16.17;68.48
20620;BME280;10469;42.720;23.252;2024-02-23T14:44:15;94382.69;;;15.99;69.40
20620;BME280;10469;42.720;23.252;2024-02-23T14:46:40;94395.56;;;16.12;69.82
20620;BME280;10469;42.720;23.252;2024-02-23T14:49:07;94407.00;;;16.04;69.47
20620;BME280;10469;42.720;23.252;2024-02-23T14:51:32;94400.06;;;15.88;69.82
20620;BME280;10469;42.720;23.252;2024-02-23T14:53:59;94399.25;;;15.87;70.01
20620;BME280;10469;42.720;23.252;2024-02-23T14:56:27;94402.63;;;15.69;70.96
20620;BME280;10469;42.720;23.252;2024-02-23T14:58:52;94405.09;;;15.65;71.93
20620;BME280;10469;42.720;23.252;2024-02-23T15:01:18;94410.50;;;15.65;71.60
20620;BME280;10469;42.720;23.252;2024-02-23T15:03:43;94393.72;;;15.63;72.29
20620;BME280;10469;42.720;23.252;2024-02-23T15:06:09;94400.81;;;15.49;72.85
20620;BME280;10469;42.720;23.252;2024-02-23T15:08:36;94405.34;;;15.64;72.90
20620;BME280;10469;42.720;23.252;2024-02-23T15:11:03;94417.59;;;15.41;73.59
20620;BME280;10469;42.720;23.252;2024-02-23T15:13:30;94383.06;;;15.32;74.59
20620;BME280;10469;42.720;23.252;2024-02-23T15:15:56;94407.13;;;15.34;75.37
20620;BME280;10469;42.720;23.252;2024-02-23T15:18:21;94399.81;;;15.35;75.87
20620;BME280;10469;42.720;23.252;2024-02-23T15:20:47;94399.59;;;15.26;77.04
20620;BME280;10469;42.720;23.252;2024-02-23T15:23:13;94407.16;;;15.24;77.36
20620;BME280;10469;42.720;23.252;2024-02-23T15:25:39;94403.72;;;15.08;78.57
20620;BME280;10469;42.720;23.252;2024-02-23T15:28:04;94392.41;;;14.96;78.91
20620;BME280;10469;42.720;23.252;2024-02-23T15:30:30;94400.47;;;15.06;79.80
20620;BME280;10469;42.720;23.252;2024-02-23T15:32:56;94402.94;;;14.97;79.78
20620;BME280;10469;42.720;23.252;2024-02-23T15:35:22;94403.75;;;15.03;80.52
20620;BME280;10469;42.720;23.252;2024-02-23T15:37:51;94405.38;;;14.99;80.70
20620;BME280;10469;42.720;23.252;2024-02-23T15:40:17;94388.38;;;14.98;81.16
20620;BME280;10469;42.720;23.252;2024-02-23T15:42:42;94390.56;;;14.86;81.73
20620;BME280;10469;42.720;23.252;2024-02-23T15:45:08;94413.72;;;14.97;82.67
20620;BME280;10469;42.720;23.252;2024-02-23T15:47:33;94413.75;;;14.92;82.77
20620;BME280;10469;42.720;23.252;2024-02-23T15:49:59;94411.09;;;14.82;83.29
20620;BME280;10469;42.720;23.252;2024-02-23T15:52:25;94406.53;;;14.77;84.33
20620;BME280;10469;42.720;23.252;2024-02-23T15:54:52;94398.69;;;14.76;84.89
20620;BME280;10469;42.720;23.252;2024-02-23T15:57:17;94408.16;;;14.73;85.48
20620;BME280;10469;42.720;23.252;2024-02-23T15:59:43;94401.94;;;14.68;85.74
20620;BME280;10469;42.720;23.252;2024-02-23T16:02:08;94396.31;;;14.64;86.48
20620;BME280;10469;42.720;23.252;2024-02-23T16:04:34;94393.06;;;14.52;87.10
20620;BME280;10469;42.720;23.252;2024-02-23T16:06:59;94401.16;;;14.52;87.68
20620;BME280;10469;42.720;23.252;2024-02-23T16:09:25;94400.09;;;14.53;88.59
20620;BME280;10469;42.720;23.252;2024-02-23T16:11:51;94408.72;;;14.55;89.02
20620;BME280;10469;42.720;23.252;2024-02-23T16:14:16;94379.31;;;14.48;88.86
20620;BME280;10469;42.720;23.252;2024-02-23T16:16:42;94404.38;;;14.44;89.40
20620;BME280;10469;42.720;23.252;2024-02-23T16:19:09;94404.66;;;14.42;89.61
20620;BME280;10469;42.720;23.252;2024-02-23T16:21:37;94404.13;;;14.40;90.74
20620;BME280;10469;42.720;23.252;2024-02-23T16:24:05;94403.88;;;14.26;90.80
20620;BME280;10469;42.720;23.252;2024-02-23T16:26:31;94418.16;;;14.32;90.89
20620;BME280;10469;42.720;23.252;2024-02-23T16:29:00;94420.03;;;14.31;91.18
20620;BME280;10469;42.720;23.252;2024-02-23T16:31:26;94419.50;;;14.24;91.95
20620;BME280;10469;42.720;23.252;2024-02-23T16:33:51;94427.84;;;14.28;90.72
20620;BME280;10469;42.720;23.252;2024-02-23T16:36:17;94440.53;;;14.32;90.92
20620;BME280;10469;42.720;23.252;2024-02-23T16:38:43;94409.81;;;14.34;90.72
20620;BME280;10469;42.720;23.252;2024-02-23T16:41:09;94426.53;;;14.30;91.20
20620;BME280;10469;42.720;23.252;2024-02-23T16:43:34;94441.09;;;14.29;91.74
20620;BME280;10469;42.720;23.252;2024-02-23T16:46:00;94432.97;;;14.24;91.56
20620;BME280;10469;42.720;23.252;2024-02-23T16:48:25;94438.38;;;14.24;91.93
20620;BME280;10469;42.720;23.252;2024-02-23T16:50:51;94423.81;;;14.15;92.38
20620;BME280;10469;42.720;23.252;2024-02-23T16:53:17;94449.72;;;14.21;92.66
20620;BME280;10469;42.720;23.252;2024-02-23T16:55:42;94434.88;;;14.19;92.81
20620;BME280;10469;42.720;23.252;2024-02-23T16:58:09;94425.44;;;14.26;92.79
20620;BME280;10469;42.720;23.252;2024-02-23T17:00:34;94448.34;;;14.24;92.77
20620;BME280;10469;42.720;23.252;2024-02-23T17:03:00;94456.97;;;14.16;93.01
20620;BME280;10469;42.720;23.252;2024-02-23T17:05:26;94443.22;;;14.07;93.61
20620;BME280;10469;42.720;23.252;2024-02-23T17:07:58;94467.22;;;14.19;93.54
20620;BME280;10469;42.720;23.252;2024-02-23T17:10:24;94470.44;;;14.16;93.39
20620;BME280;10469;42.720;23.252;2024-02-23T20:15:45;94474.09;;;13.48;100.00
20620;BME280;10469;42.720;23.252;2024-02-23T20:18:11;94497.78;;;13.46;100.00
20620;BME280;10469;42.720;23.252;2024-02-23T20:20:37;94491.59;;;13.46;100.00
20620;BME280;10469;42.720;23.252;2024-02-23T20:23:04;94491.31;;;13.42;100.00
20620;BME280;10469;42.720;23.252;2024-02-23T20:25:29;94492.41;;;13.46;100.00
20620;BME280;10469;42.720;23.252;2024-02-23T20:27:55;94483.22;;;13.37;100.00
20620;BME280;10469;42.720;23.252;2024-02-23T20:30:20;94503.94;;;13.37;100.00